sensor_id;sensor_type;location;lat;lon;timestamp;temperature;humidity
54202;DHT22;40108;53.152;5.844;2022-07-06T00:01:42;15.20;73.10
54202;DHT22;40108;53.152;5.844;2022-07-06T00:04:08;15.20;73.00
54202;DHT22;40108;53.152;5.844;2022-07-06T00:06:34;15.20;73.00
54202;DHT22;40108;53.152;5.844;2022-07-06T00:09:00;15.30;73.10
54202;DHT22;40108;53.152;5.844;2022-07-06T00:11:26;15.20;73.30
54202;DHT22;40108;53.152;5.844;2022-07-06T00:13:52;15.20;73.50
54202;DHT22;40108;53.152;5.844;2022-07-06T00:16:18;15.20;73.40
54202;DHT22;40108;53.152;5.844;2022-07-06T00:18:45;15.20;73.60
54202;DHT22;40108;53.152;5.844;2022-07-06T00:21:11;15.20;73.60
54202;DHT22;40108;53.152;5.844;2022-07-06T00:23:36;15.10;73.80
54202;DHT22;40108;53.152;5.844;2022-07-06T00:26:02;15.10;73.90
54202;DHT22;40108;53.152;5.844;2022-07-06T00:28:28;15.10;74.00
54202;DHT22;40108;53.152;5.844;2022-07-06T00:30:54;15.10;74.20
54202;DHT22;40108;53.152;5.844;2022-07-06T00:33:21;15.10;74.20
54202;DHT22;40108;53.152;5.844;2022-07-06T00:36:02;15.10;74.40
54202;DHT22;40108;53.152;5.844;2022-07-06T00:38:31;15.10;74.50
54202;DHT22;40108;53.152;5.844;2022-07-06T00:40:58;15.10;74.70
54202;DHT22;40108;53.152;5.844;2022-07-06T00:43:24;15.10;74.70
54202;DHT22;40108;53.152;5.844;2022-07-06T00:46:30;15.10;74.80
54202;DHT22;40108;53.152;5.844;2022-07-06T00:49:19;15.10;74.90
54202;DHT22;40108;53.152;5.844;2022-07-06T00:52:28;15.10;75.00
54202;DHT22;40108;53.152;5.844;2022-07-06T00:54:54;15.10;75.10
54202;DHT22;40108;53.152;5.844;2022-07-06T00:57:21;15.10;75.30
54202;DHT22;40108;53.152;5.844;2022-07-06T00:59:52;15.00;75.40
54202;DHT22;40108;53.152;5.844;2022-07-06T01:02:22;15.00;75.30
54202;DHT22;40108;53.152;5.844;2022-07-06T01:04:48;15.00;75.40
54202;DHT22;40108;53.152;5.844;2022-07-06T01:07:17;15.00;75.50
54202;DHT22;40108;53.152;5.844;2022-07-06T01:09:49;15.00;75.40
54202;DHT22;40108;53.152;5.844;2022-07-06T01:12:23;15.00;75.40
54202;DHT22;40108;53.152;5.844;2022-07-06T01:14:50;15.00;75.40
54202;DHT22;40108;53.152;5.844;2022-07-06T01:17:18;15.00;75.20
54202;DHT22;40108;53.152;5.844;2022-07-06T01:19:45;15.00;75.40
54202;DHT22;40108;53.152;5.844;2022-07-06T01:22:14;15.00;75.50
54202;DHT22;40108;53.152;5.844;2022-07-06T01:24:44;15.10;75.50
54202;DHT22;40108;53.152;5.844;2022-07-06T01:27:13;15.00;75.40
54202;DHT22;40108;53.152;5.844;2022-07-06T01:29:39;15.10;75.40
54202;DHT22;40108;53.152;5.844;2022-07-06T01:32:05;15.10;75.50
54202;DHT22;40108;53.152;5.844;2022-07-06T01:34:35;15.10;75.40
54202;DHT22;40108;53.152;5.844;2022-07-06T01:37:04;15.10;75.50
54202;DHT22;40108;53.152;5.844;2022-07-06T01:39:31;15.10;75.60
54202;DHT22;40108;53.152;5.844;2022-07-06T01:41:56;15.10;75.60
54202;DHT22;40108;53.152;5.844;2022-07-06T01:44:22;15.10;75.50
54202;DHT22;40108;53.152;5.844;2022-07-06T01:46:48;15.10;75.50
54202;DHT22;40108;53.152;5.844;2022-07-06T01:49:14;15.10;75.30
54202;DHT22;40108;53.152;5.844;2022-07-06T01:51:40;15.10;75.60
54202;DHT22;40108;53.152;5.844;2022-07-06T01:54:05;15.10;75.70
54202;DHT22;40108;53.152;5.844;2022-07-06T01:56:31;15.10;75.60
54202;DHT22;40108;53.152;5.844;2022-07-06T01:58:57;15.10;75.70
54202;DHT22;40108;53.152;5.844;2022-07-06T02:01:23;15.10;75.60
54202;DHT22;40108;53.152;5.844;2022-07-06T02:03:51;15.10;75.70
54202;DHT22;40108;53.152;5.844;2022-07-06T02:06:17;15.10;75.70
54202;DHT22;40108;53.152;5.844;2022-07-06T02:08:43;15.10;75.80
54202;DHT22;40108;53.152;5.844;2022-07-06T02:11:09;15.00;76.00
54202;DHT22;40108;53.152;5.844;2022-07-06T02:13:36;15.00;76.00
54202;DHT22;40108;53.152;5.844;2022-07-06T02:16:03;15.00;76.00
54202;DHT22;40108;53.152;5.844;2022-07-06T02:18:28;15.00;75.40
54202;DHT22;40108;53.152;5.844;2022-07-06T02:20:54;15.00;75.20
54202;DHT22;40108;53.152;5.844;2022-07-06T02:23:20;15.00;75.10
54202;DHT22;40108;53.152;5.844;2022-07-06T02:25:46;15.00;75.10
54202;DHT22;40108;53.152;5.844;2022-07-06T02:28:12;15.00;74.70
54202;DHT22;40108;53.152;5.844;2022-07-06T02:30:37;14.90;74.80
54202;DHT22;40108;53.152;5.844;2022-07-06T02:33:03;14.90;74.40
54202;DHT22;40108;53.152;5.844;2022-07-06T02:35:29;14.90;74.40
54202;DHT22;40108;53.152;5.844;2022-07-06T02:37:54;14.90;74.20
54202;DHT22;40108;53.152;5.844;2022-07-06T02:40:20;14.80;73.90
54202;DHT22;40108;53.152;5.844;2022-07-06T02:42:46;14.90;73.90
54202;DHT22;40108;53.152;5.844;2022-07-06T02:45:12;14.80;73.50
54202;DHT22;40108;53.152;5.844;2022-07-06T02:47:58;14.80;73.50
54202;DHT22;40108;53.152;5.844;2022-07-06T02:50:24;14.80;73.30
54202;DHT22;40108;53.152;5.844;2022-07-06T02:52:53;14.80;73.50
54202;DHT22;40108;53.152;5.844;2022-07-06T02:55:27;14.70;73.60
54202;DHT22;40108;53.152;5.844;2022-07-06T02:57:52;14.70;73.60
54202;DHT22;40108;53.152;5.844;2022-07-06T03:00:18;14.70;73.70
54202;DHT22;40108;53.152;5.844;2022-07-06T03:02:44;14.60;73.90
54202;DHT22;40108;53.152;5.844;2022-07-06T03:05:09;14.60;73.90
54202;DHT22;40108;53.152;5.844;2022-07-06T03:07:35;14.50;74.00
54202;DHT22;40108;53.152;5.844;2022-07-06T03:10:04;14.50;74.20
54202;DHT22;40108;53.152;5.844;2022-07-06T03:12:29;14.40;74.30
54202;DHT22;40108;53.152;5.844;2022-07-06T03:14:58;14.40;74.40
54202;DHT22;40108;53.152;5.844;2022-07-06T03:17:24;14.30;74.30
54202;DHT22;40108;53.152;5.844;2022-07-06T03:19:52;14.20;74.60
54202;DHT22;40108;53.152;5.844;2022-07-06T03:22:18;14.10;74.70
54202;DHT22;40108;53.152;5.844;2022-07-06T03:24:46;14.00;75.10
54202;DHT22;40108;53.152;5.844;2022-07-06T03:27:24;13.90;75.20
54202;DHT22;40108;53.152;5.844;2022-07-06T03:29:50;13.80;75.40
54202;DHT22;40108;53.152;5.844;2022-07-06T03:32:19;13.70;75.50
54202;DHT22;40108;53.152;5.844;2022-07-06T03:34:45;13.70;76.00
54202;DHT22;40108;53.152;5.844;2022-07-06T03:37:13;13.60;76.40
54202;DHT22;40108;53.152;5.844;2022-07-06T03:39:39;13.40;77.00
54202;DHT22;40108;53.152;5.844;2022-07-06T03:42:11;13.30;77.10
54202;DHT22;40108;53.152;5.844;2022-07-06T03:44:37;13.20;77.90
54202;DHT22;40108;53.152;5.844;2022-07-06T03:47:03;13.10;78.10
54202;DHT22;40108;53.152;5.844;2022-07-06T03:49:29;13.00;78.60
54202;DHT22;40108;53.152;5.844;2022-07-06T03:51:55;13.00;79.00
54202;DHT22;40108;53.152;5.844;2022-07-06T03:54:21;12.90;79.00
54202;DHT22;40108;53.152;5.844;2022-07-06T03:56:50;12.90;79.50
54202;DHT22;40108;53.152;5.844;2022-07-06T03:59:16;12.80;80.00
54202;DHT22;40108;53.152;5.844;2022-07-06T04:01:42;12.80;79.60
54202;DHT22;40108;53.152;5.844;2022-07-06T04:04:09;12.70;79.60
54202;DHT22;40108;53.152;5.844;2022-07-06T04:06:35;12.70;79.70
54202;DHT22;40108;53.152;5.844;2022-07-06T04:09:03;12.70;79.90
54202;DHT22;40108;53.152;5.844;2022-07-06T04:11:35;12.70;79.60
54202;DHT22;40108;53.152;5.844;2022-07-06T04:14:01;12.70;79.70
54202;DHT22;40108;53.152;5.844;2022-07-06T04:16:33;12.80;79.80
54202;DHT22;40108;53.152;5.844;2022-07-06T04:18:59;12.70;79.60
54202;DHT22;40108;53.152;5.844;2022-07-06T04:21:28;12.80;79.80
54202;DHT22;40108;53.152;5.844;2022-07-06T04:23:57;12.80;80.00
54202;DHT22;40108;53.152;5.844;2022-07-06T04:26:24;12.90;79.90
54202;DHT22;40108;53.152;5.844;2022-07-06T04:28:56;12.90;80.00
54202;DHT22;40108;53.152;5.844;2022-07-06T04:31:22;12.90;80.30
54202;DHT22;40108;53.152;5.844;2022-07-06T04:33:51;12.90;80.30
54202;DHT22;40108;53.152;5.844;2022-07-06T04:36:42;13.00;80.30
54202;DHT22;40108;53.152;5.844;2022-07-06T04:39:10;13.00;80.30
54202;DHT22;40108;53.152;5.844;2022-07-06T04:41:42;13.10;80.40
54202;DHT22;40108;53.152;5.844;2022-07-06T04:44:10;13.10;80.50
54202;DHT22;40108;53.152;5.844;2022-07-06T04:46:39;13.10;80.40
54202;DHT22;40108;53.152;5.844;2022-07-06T04:49:08;13.20;80.20
54202;DHT22;40108;53.152;5.844;2022-07-06T04:51:37;13.30;80.10
54202;DHT22;40108;53.152;5.844;2022-07-06T04:54:06;13.40;80.10
54202;DHT22;40108;53.152;5.844;2022-07-06T04:56:54;13.40;80.20
54202;DHT22;40108;53.152;5.844;2022-07-06T04:59:43;13.40;80.30
54202;DHT22;40108;53.152;5.844;2022-07-06T05:02:19;13.50;80.20
54202;DHT22;40108;53.152;5.844;2022-07-06T05:04:51;13.60;80.40
54202;DHT22;40108;53.152;5.844;2022-07-06T05:07:26;13.60;80.40
54202;DHT22;40108;53.152;5.844;2022-07-06T05:09:55;13.60;80.10
54202;DHT22;40108;53.152;5.844;2022-07-06T05:12:30;13.70;80.10
54202;DHT22;40108;53.152;5.844;2022-07-06T05:15:03;13.70;80.30
54202;DHT22;40108;53.152;5.844;2022-07-06T05:17:32;13.80;80.30
54202;DHT22;40108;53.152;5.844;2022-07-06T05:19:58;13.80;80.40
54202;DHT22;40108;53.152;5.844;2022-07-06T05:22:27;13.90;80.50
54202;DHT22;40108;53.152;5.844;2022-07-06T05:24:54;14.00;80.40
54202;DHT22;40108;53.152;5.844;2022-07-06T05:27:22;14.10;80.40
54202;DHT22;40108;53.152;5.844;2022-07-06T05:29:52;14.10;80.30
54202;DHT22;40108;53.152;5.844;2022-07-06T05:32:18;14.20;80.30
54202;DHT22;40108;53.152;5.844;2022-07-06T05:34:47;14.30;80.40
54202;DHT22;40108;53.152;5.844;2022-07-06T05:37:23;14.40;80.50
54202;DHT22;40108;53.152;5.844;2022-07-06T05:40:07;14.50;80.50
54202;DHT22;40108;53.152;5.844;2022-07-06T05:42:41;14.60;79.80
54202;DHT22;40108;53.152;5.844;2022-07-06T05:45:13;14.80;79.30
54202;DHT22;40108;53.152;5.844;2022-07-06T05:47:46;14.90;78.20
54202;DHT22;40108;53.152;5.844;2022-07-06T05:50:33;14.90;77.60
54202;DHT22;40108;53.152;5.844;2022-07-06T05:53:04;15.10;76.70
54202;DHT22;40108;53.152;5.844;2022-07-06T05:55:31;15.10;76.20
54202;DHT22;40108;53.152;5.844;2022-07-06T05:58:05;15.10;76.60
54202;DHT22;40108;53.152;5.844;2022-07-06T06:00:31;15.20;76.30
54202;DHT22;40108;53.152;5.844;2022-07-06T06:03:04;15.30;76.40
54202;DHT22;40108;53.152;5.844;2022-07-06T06:05:51;15.40;75.60
54202;DHT22;40108;53.152;5.844;2022-07-06T06:08:33;15.40;75.80
54202;DHT22;40108;53.152;5.844;2022-07-06T06:11:13;15.40;75.30
54202;DHT22;40108;53.152;5.844;2022-07-06T06:14:04;15.40;75.40
54202;DHT22;40108;53.152;5.844;2022-07-06T06:16:50;15.60;75.80
54202;DHT22;40108;53.152;5.844;2022-07-06T06:19:46;15.70;75.50
54202;DHT22;40108;53.152;5.844;2022-07-06T06:26:20;16.10;74.20
54202;DHT22;40108;53.152;5.844;2022-07-06T06:28:55;16.20;72.90
54202;DHT22;40108;53.152;5.844;2022-07-06T06:31:33;16.30;73.80
54202;DHT22;40108;53.152;5.844;2022-07-06T06:33:59;16.40;72.00
54202;DHT22;40108;53.152;5.844;2022-07-06T06:36:25;16.50;71.10
54202;DHT22;40108;53.152;5.844;2022-07-06T06:38:57;16.50;69.50
54202;DHT22;40108;53.152;5.844;2022-07-06T06:41:32;16.50;69.40
54202;DHT22;40108;53.152;5.844;2022-07-06T06:44:01;16.60;68.40
54202;DHT22;40108;53.152;5.844;2022-07-06T06:46:27;16.70;68.20
54202;DHT22;40108;53.152;5.844;2022-07-06T06:52:04;17.00;67.70
54202;DHT22;40108;53.152;5.844;2022-07-06T06:54:30;17.30;67.20
54202;DHT22;40108;53.152;5.844;2022-07-06T06:56:56;17.50;67.30
54202;DHT22;40108;53.152;5.844;2022-07-06T06:59:22;17.70;66.40
54202;DHT22;40108;53.152;5.844;2022-07-06T07:02:00;17.80;66.30
54202;DHT22;40108;53.152;5.844;2022-07-06T07:04:26;17.90;65.80
54202;DHT22;40108;53.152;5.844;2022-07-06T07:06:54;18.10;66.20
54202;DHT22;40108;53.152;5.844;2022-07-06T07:09:24;18.30;65.70
54202;DHT22;40108;53.152;5.844;2022-07-06T07:11:56;18.40;65.50
54202;DHT22;40108;53.152;5.844;2022-07-06T07:14:25;18.40;64.90
54202;DHT22;40108;53.152;5.844;2022-07-06T07:16:53;18.30;65.70
54202;DHT22;40108;53.152;5.844;2022-07-06T07:19:19;18.30;64.70
54202;DHT22;40108;53.152;5.844;2022-07-06T07:21:45;18.10;64.80
54202;DHT22;40108;53.152;5.844;2022-07-06T07:24:16;18.00;64.70
54202;DHT22;40108;53.152;5.844;2022-07-06T07:27:13;17.80;65.20
54202;DHT22;40108;53.152;5.844;2022-07-06T07:30:20;17.90;65.60
54202;DHT22;40108;53.152;5.844;2022-07-06T07:33:07;18.10;64.30
54202;DHT22;40108;53.152;5.844;2022-07-06T07:35:33;18.10;63.90
54202;DHT22;40108;53.152;5.844;2022-07-06T07:37:59;18.10;64.70
54202;DHT22;40108;53.152;5.844;2022-07-06T07:40:28;18.10;65.00
54202;DHT22;40108;53.152;5.844;2022-07-06T07:43:06;17.90;65.30
54202;DHT22;40108;53.152;5.844;2022-07-06T07:45:42;17.80;65.60
54202;DHT22;40108;53.152;5.844;2022-07-06T07:48:11;17.80;65.60
54202;DHT22;40108;53.152;5.844;2022-07-06T07:50:41;17.70;66.00
54202;DHT22;40108;53.152;5.844;2022-07-06T07:53:10;17.80;66.60
54202;DHT22;40108;53.152;5.844;2022-07-06T07:55:45;18.10;66.10
54202;DHT22;40108;53.152;5.844;2022-07-06T07:58:20;18.50;63.00
54202;DHT22;40108;53.152;5.844;2022-07-06T08:00:45;18.80;63.00
54202;DHT22;40108;53.152;5.844;2022-07-06T08:03:15;19.10;63.20
54202;DHT22;40108;53.152;5.844;2022-07-06T08:05:44;19.40;60.90
54202;DHT22;40108;53.152;5.844;2022-07-06T08:08:15;19.30;60.00
54202;DHT22;40108;53.152;5.844;2022-07-06T08:10:41;19.10;61.00
54202;DHT22;40108;53.152;5.844;2022-07-06T08:13:10;19.00;61.90
54202;DHT22;40108;53.152;5.844;2022-07-06T08:15:37;19.10;62.40
54202;DHT22;40108;53.152;5.844;2022-07-06T08:18:05;19.30;61.50
54202;DHT22;40108;53.152;5.844;2022-07-06T08:20:31;19.30;60.90
54202;DHT22;40108;53.152;5.844;2022-07-06T08:23:02;19.10;60.20
54202;DHT22;40108;53.152;5.844;2022-07-06T08:25:29;19.00;61.00
54202;DHT22;40108;53.152;5.844;2022-07-06T08:27:55;19.10;61.10
54202;DHT22;40108;53.152;5.844;2022-07-06T08:30:30;19.40;58.90
54202;DHT22;40108;53.152;5.844;2022-07-06T08:33:03;19.30;59.70
54202;DHT22;40108;53.152;5.844;2022-07-06T08:43:48;18.80;60.90
54202;DHT22;40108;53.152;5.844;2022-07-06T08:46:24;19.10;62.80
54202;DHT22;40108;53.152;5.844;2022-07-06T08:48:50;19.60;62.40
54202;DHT22;40108;53.152;5.844;2022-07-06T08:51:17;20.00;60.20
54202;DHT22;40108;53.152;5.844;2022-07-06T08:54:11;20.20;59.90
54202;DHT22;40108;53.152;5.844;2022-07-06T08:56:38;20.00;58.70
54202;DHT22;40108;53.152;5.844;2022-07-06T08:59:07;19.90;60.40
54202;DHT22;40108;53.152;5.844;2022-07-06T09:01:38;20.00;61.70
54202;DHT22;40108;53.152;5.844;2022-07-06T09:04:19;20.30;60.40
54202;DHT22;40108;53.152;5.844;2022-07-06T09:06:50;20.60;59.50
54202;DHT22;40108;53.152;5.844;2022-07-06T09:09:22;20.90;58.70
54202;DHT22;40108;53.152;5.844;2022-07-06T09:12:12;21.10;57.60
54202;DHT22;40108;53.152;5.844;2022-07-06T09:14:47;21.30;56.10
54202;DHT22;40108;53.152;5.844;2022-07-06T09:17:18;21.30;56.10
54202;DHT22;40108;53.152;5.844;2022-07-06T09:19:48;21.30;57.50
54202;DHT22;40108;53.152;5.844;2022-07-06T09:22:32;21.30;56.20
54202;DHT22;40108;53.152;5.844;2022-07-06T09:25:16;21.30;55.40
54202;DHT22;40108;53.152;5.844;2022-07-06T09:27:50;21.40;56.30
54202;DHT22;40108;53.152;5.844;2022-07-06T09:38:28;21.60;56.10
54202;DHT22;40108;53.152;5.844;2022-07-06T09:40:57;21.60;54.00
54202;DHT22;40108;53.152;5.844;2022-07-06T09:43:30;21.60;53.90
54202;DHT22;40108;53.152;5.844;2022-07-06T09:46:08;21.30;54.50
54202;DHT22;40108;53.152;5.844;2022-07-06T09:48:43;21.30;55.10
54202;DHT22;40108;53.152;5.844;2022-07-06T09:56:53;21.50;54.00
54202;DHT22;40108;53.152;5.844;2022-07-06T09:59:23;21.60;52.40
54202;DHT22;40108;53.152;5.844;2022-07-06T10:01:53;21.80;54.10
54202;DHT22;40108;53.152;5.844;2022-07-06T10:04:20;21.80;54.60
54202;DHT22;40108;53.152;5.844;2022-07-06T10:06:47;22.00;54.20
54202;DHT22;40108;53.152;5.844;2022-07-06T10:09:14;22.00;53.60
54202;DHT22;40108;53.152;5.844;2022-07-06T10:11:59;22.30;53.30
54202;DHT22;40108;53.152;5.844;2022-07-06T10:14:28;22.10;51.90
54202;DHT22;40108;53.152;5.844;2022-07-06T10:17:03;22.10;52.80
54202;DHT22;40108;53.152;5.844;2022-07-06T10:19:31;22.30;51.70
54202;DHT22;40108;53.152;5.844;2022-07-06T10:22:02;22.50;52.50
54202;DHT22;40108;53.152;5.844;2022-07-06T10:24:30;22.60;52.00
54202;DHT22;40108;53.152;5.844;2022-07-06T10:26:56;22.60;52.20
54202;DHT22;40108;53.152;5.844;2022-07-06T10:29:24;22.80;52.40
54202;DHT22;40108;53.152;5.844;2022-07-06T10:32:04;22.70;49.50
54202;DHT22;40108;53.152;5.844;2022-07-06T10:34:31;22.70;51.00
54202;DHT22;40108;53.152;5.844;2022-07-06T10:36:57;23.00;52.20
54202;DHT22;40108;53.152;5.844;2022-07-06T10:39:36;22.80;49.80
54202;DHT22;40108;53.152;5.844;2022-07-06T10:42:43;22.90;52.10
54202;DHT22;40108;53.152;5.844;2022-07-06T10:45:14;23.00;51.10
54202;DHT22;40108;53.152;5.844;2022-07-06T10:47:41;22.80;51.90
54202;DHT22;40108;53.152;5.844;2022-07-06T10:50:08;22.90;51.80
54202;DHT22;40108;53.152;5.844;2022-07-06T10:52:51;22.90;51.80
54202;DHT22;40108;53.152;5.844;2022-07-06T10:55:38;23.00;50.90
54202;DHT22;40108;53.152;5.844;2022-07-06T10:58:07;23.10;49.60
54202;DHT22;40108;53.152;5.844;2022-07-06T11:00:54;23.10;49.70
54202;DHT22;40108;53.152;5.844;2022-07-06T11:03:35;23.30;49.80
54202;DHT22;40108;53.152;5.844;2022-07-06T11:06:22;23.40;48.30
54202;DHT22;40108;53.152;5.844;2022-07-06T11:09:10;23.60;49.70
54202;DHT22;40108;53.152;5.844;2022-07-06T11:11:37;23.60;49.70
54202;DHT22;40108;53.152;5.844;2022-07-06T11:14:21;23.70;49.40
54202;DHT22;40108;53.152;5.844;2022-07-06T11:20:09;24.00;49.70
54202;DHT22;40108;53.152;5.844;2022-07-06T11:22:38;24.00;49.10
54202;DHT22;40108;53.152;5.844;2022-07-06T11:25:05;24.00;48.20
54202;DHT22;40108;53.152;5.844;2022-07-06T11:27:35;24.00;47.50
54202;DHT22;40108;53.152;5.844;2022-07-06T11:30:01;24.00;47.80
54202;DHT22;40108;53.152;5.844;2022-07-06T11:32:30;24.00;47.20
54202;DHT22;40108;53.152;5.844;2022-07-06T11:34:57;23.90;46.40
54202;DHT22;40108;53.152;5.844;2022-07-06T11:37:23;23.80;46.80
54202;DHT22;40108;53.152;5.844;2022-07-06T11:39:51;23.80;47.00
54202;DHT22;40108;53.152;5.844;2022-07-06T11:42:18;23.70;47.40
54202;DHT22;40108;53.152;5.844;2022-07-06T11:44:45;23.60;45.60
54202;DHT22;40108;53.152;5.844;2022-07-06T11:47:12;23.50;46.90
54202;DHT22;40108;53.152;5.844;2022-07-06T11:49:59;23.50;47.80
54202;DHT22;40108;53.152;5.844;2022-07-06T11:52:25;23.40;47.60
54202;DHT22;40108;53.152;5.844;2022-07-06T11:54:57;23.40;47.30
54202;DHT22;40108;53.152;5.844;2022-07-06T11:57:25;23.20;48.20
54202;DHT22;40108;53.152;5.844;2022-07-06T11:59:56;23.00;48.80
54202;DHT22;40108;53.152;5.844;2022-07-06T12:02:23;22.80;48.90
54202;DHT22;40108;53.152;5.844;2022-07-06T12:08:26;22.80;49.40
54202;DHT22;40108;53.152;5.844;2022-07-06T12:10:53;22.60;49.70
54202;DHT22;40108;53.152;5.844;2022-07-06T12:13:19;22.60;50.10
54202;DHT22;40108;53.152;5.844;2022-07-06T12:15:46;22.50;49.10
54202;DHT22;40108;53.152;5.844;2022-07-06T12:18:12;22.50;49.00
54202;DHT22;40108;53.152;5.844;2022-07-06T12:20:41;22.10;48.40
54202;DHT22;40108;53.152;5.844;2022-07-06T12:23:08;21.90;50.50
54202;DHT22;40108;53.152;5.844;2022-07-06T12:25:36;21.90;51.60
54202;DHT22;40108;53.152;5.844;2022-07-06T12:28:02;21.80;50.70
54202;DHT22;40108;53.152;5.844;2022-07-06T12:30:29;21.80;50.90
54202;DHT22;40108;53.152;5.844;2022-07-06T12:33:14;21.70;51.40
54202;DHT22;40108;53.152;5.844;2022-07-06T12:35:46;21.60;51.70
54202;DHT22;40108;53.152;5.844;2022-07-06T12:38:12;21.50;50.80
54202;DHT22;40108;53.152;5.844;2022-07-06T12:40:38;21.40;50.70
54202;DHT22;40108;53.152;5.844;2022-07-06T12:43:04;21.30;51.70
54202;DHT22;40108;53.152;5.844;2022-07-06T12:45:31;21.30;52.60
54202;DHT22;40108;53.152;5.844;2022-07-06T12:48:05;21.50;52.90
54202;DHT22;40108;53.152;5.844;2022-07-06T12:50:37;21.70;52.30
54202;DHT22;40108;53.152;5.844;2022-07-06T12:53:05;21.90;51.80
54202;DHT22;40108;53.152;5.844;2022-07-06T12:55:31;22.10;50.70
54202;DHT22;40108;53.152;5.844;2022-07-06T12:58:05;22.00;50.40
54202;DHT22;40108;53.152;5.844;2022-07-06T13:00:43;22.00;52.10
54202;DHT22;40108;53.152;5.844;2022-07-06T13:03:38;21.90;52.30
54202;DHT22;40108;53.152;5.844;2022-07-06T13:06:33;21.70;52.80
54202;DHT22;40108;53.152;5.844;2022-07-06T13:09:28;21.50;53.30
54202;DHT22;40108;53.152;5.844;2022-07-06T13:11:54;21.20;54.30
54202;DHT22;40108;53.152;5.844;2022-07-06T13:14:21;21.10;54.50
54202;DHT22;40108;53.152;5.844;2022-07-06T13:16:52;21.10;55.30
54202;DHT22;40108;53.152;5.844;2022-07-06T13:19:20;21.00;55.30
54202;DHT22;40108;53.152;5.844;2022-07-06T13:21:46;20.90;55.50
54202;DHT22;40108;53.152;5.844;2022-07-06T13:24:12;20.80;56.30
54202;DHT22;40108;53.152;5.844;2022-07-06T13:26:38;20.80;56.30
54202;DHT22;40108;53.152;5.844;2022-07-06T13:29:04;20.70;57.80
54202;DHT22;40108;53.152;5.844;2022-07-06T13:31:39;20.70;57.20
54202;DHT22;40108;53.152;5.844;2022-07-06T13:34:06;20.60;56.70
54202;DHT22;40108;53.152;5.844;2022-07-06T13:36:35;20.40;56.70
54202;DHT22;40108;53.152;5.844;2022-07-06T13:39:04;20.30;57.60
54202;DHT22;40108;53.152;5.844;2022-07-06T13:41:34;20.10;58.30
54202;DHT22;40108;53.152;5.844;2022-07-06T13:44:06;20.10;57.70
54202;DHT22;40108;53.152;5.844;2022-07-06T13:46:33;19.90;58.80
54202;DHT22;40108;53.152;5.844;2022-07-06T13:49:05;19.90;58.90
54202;DHT22;40108;53.152;5.844;2022-07-06T13:51:32;19.70;59.40
54202;DHT22;40108;53.152;5.844;2022-07-06T13:54:07;19.50;61.20
54202;DHT22;40108;53.152;5.844;2022-07-06T13:56:33;19.20;62.40
54202;DHT22;40108;53.152;5.844;2022-07-06T13:59:00;19.00;64.10
54202;DHT22;40108;53.152;5.844;2022-07-06T14:01:28;18.80;64.60
54202;DHT22;40108;53.152;5.844;2022-07-06T14:04:01;18.60;64.70
54202;DHT22;40108;53.152;5.844;2022-07-06T14:06:31;18.60;65.30
54202;DHT22;40108;53.152;5.844;2022-07-06T14:09:03;18.60;65.10
54202;DHT22;40108;53.152;5.844;2022-07-06T14:11:29;18.60;65.00
54202;DHT22;40108;53.152;5.844;2022-07-06T14:13:55;18.60;64.30
54202;DHT22;40108;53.152;5.844;2022-07-06T14:16:21;18.60;64.50
54202;DHT22;40108;53.152;5.844;2022-07-06T14:18:48;18.70;64.50
54202;DHT22;40108;53.152;5.844;2022-07-06T14:24:55;18.70;69.70
54202;DHT22;40108;53.152;5.844;2022-07-06T14:27:21;18.60;71.40
54202;DHT22;40108;53.152;5.844;2022-07-06T14:29:50;18.50;71.50
54202;DHT22;40108;53.152;5.844;2022-07-06T14:32:19;18.30;71.60
54202;DHT22;40108;53.152;5.844;2022-07-06T14:34:45;18.20;71.40
54202;DHT22;40108;53.152;5.844;2022-07-06T14:37:17;18.20;71.10
54202;DHT22;40108;53.152;5.844;2022-07-06T14:39:45;18.10;71.30
54202;DHT22;40108;53.152;5.844;2022-07-06T14:42:12;18.10;71.40
54202;DHT22;40108;53.152;5.844;2022-07-06T14:44:38;18.10;71.40
54202;DHT22;40108;53.152;5.844;2022-07-06T14:47:12;18.10;73.20
54202;DHT22;40108;53.152;5.844;2022-07-06T14:49:38;17.90;74.80
54202;DHT22;40108;53.152;5.844;2022-07-06T14:52:04;17.60;75.40
54202;DHT22;40108;53.152;5.844;2022-07-06T14:54:30;17.50;75.90
54202;DHT22;40108;53.152;5.844;2022-07-06T14:56:56;17.40;76.40
54202;DHT22;40108;53.152;5.844;2022-07-06T14:59:22;17.30;76.50
54202;DHT22;40108;53.152;5.844;2022-07-06T15:01:48;17.30;75.90
54202;DHT22;40108;53.152;5.844;2022-07-06T15:04:16;17.40;75.70
54202;DHT22;40108;53.152;5.844;2022-07-06T15:06:42;17.50;75.40
54202;DHT22;40108;53.152;5.844;2022-07-06T15:09:11;17.50;75.00
54202;DHT22;40108;53.152;5.844;2022-07-06T15:11:36;17.50;75.30
54202;DHT22;40108;53.152;5.844;2022-07-06T15:14:02;17.60;75.40
54202;DHT22;40108;53.152;5.844;2022-07-06T15:16:28;17.50;75.40
54202;DHT22;40108;53.152;5.844;2022-07-06T15:18:56;17.60;75.00
54202;DHT22;40108;53.152;5.844;2022-07-06T15:21:22;17.60;74.20
54202;DHT22;40108;53.152;5.844;2022-07-06T15:23:48;17.60;74.10
54202;DHT22;40108;53.152;5.844;2022-07-06T15:26:14;17.60;74.90
54202;DHT22;40108;53.152;5.844;2022-07-06T15:28:51;17.60;75.90
54202;DHT22;40108;53.152;5.844;2022-07-06T15:31:38;17.60;76.30
54202;DHT22;40108;53.152;5.844;2022-07-06T15:35:06;17.50;77.10
54202;DHT22;40108;53.152;5.844;2022-07-06T15:37:33;17.50;77.90
54202;DHT22;40108;53.152;5.844;2022-07-06T15:40:00;17.40;78.30
54202;DHT22;40108;53.152;5.844;2022-07-06T15:42:48;17.30;79.00
54202;DHT22;40108;53.152;5.844;2022-07-06T15:45:17;17.30;79.10
54202;DHT22;40108;53.152;5.844;2022-07-06T15:47:46;17.30;79.80
54202;DHT22;40108;53.152;5.844;2022-07-06T15:50:14;17.20;80.50
54202;DHT22;40108;53.152;5.844;2022-07-06T15:52:42;17.20;81.10
54202;DHT22;40108;53.152;5.844;2022-07-06T15:55:08;17.10;81.60
54202;DHT22;40108;53.152;5.844;2022-07-06T15:57:34;17.10;82.10
54202;DHT22;40108;53.152;5.844;2022-07-06T15:59:59;17.00;82.90
54202;DHT22;40108;53.152;5.844;2022-07-06T16:02:25;17.00;83.20
54202;DHT22;40108;53.152;5.844;2022-07-06T16:04:51;16.90;83.60
54202;DHT22;40108;53.152;5.844;2022-07-06T16:07:16;16.80;84.20
54202;DHT22;40108;53.152;5.844;2022-07-06T16:09:42;16.80;84.10
54202;DHT22;40108;53.152;5.844;2022-07-06T16:12:08;16.80;84.80
54202;DHT22;40108;53.152;5.844;2022-07-06T16:14:34;16.70;85.30
54202;DHT22;40108;53.152;5.844;2022-07-06T16:16:59;16.70;85.50
54202;DHT22;40108;53.152;5.844;2022-07-06T16:19:25;16.60;85.70
54202;DHT22;40108;53.152;5.844;2022-07-06T16:21:51;16.60;85.80
54202;DHT22;40108;53.152;5.844;2022-07-06T16:24:16;16.70;86.20
54202;DHT22;40108;53.152;5.844;2022-07-06T16:26:42;16.70;86.10
54202;DHT22;40108;53.152;5.844;2022-07-06T16:29:08;16.60;86.50
54202;DHT22;40108;53.152;5.844;2022-07-06T16:31:34;16.60;86.60